Time;durP1;ratioP1;P1;durP2;ratioP2;P2;SDS_P1;SDS_P2;PMS_P1;PMS_P2;Temp;Humidity;BMP_temperature;BMP_pressure;BME280_temperature;BME280_humidity;BME280_pressure;Samples;Min_cycle;Max_cycle;Signal;HPM_P1;HPM_P2
2022/05/02 00:00:08;;;;;;;13.57;10.45;;;;;;;20.14;40.48;99678.13;345888;28;1961;-67
2022/05/02 00:00:20;;;;;;;13.95;10.75;;;;;;;20.10;40.26;99676.69;344632;28;1292;-68
2022/05/02 00:00:33;;;;;;;12.82;10.50;;;;;;;20.11;40.31;99679.22;345910;28;1353;-69
2022/05/02 00:00:46;;;;;;;12.65;10.32;;;;;;;20.09;40.59;99682.91;346298;28;1070;-67
2022/05/02 00:00:58;;;;;;;13.20;10.45;;;;;;;20.08;40.58;99673.31;346450;28;1249;-67
2022/05/02 00:01:10;;;;;;;12.95;10.57;;;;;;;20.08;40.41;99673.31;345998;28;1038;-67
2022/05/02 00:01:22;;;;;;;12.88;10.63;;;;;;;20.08;40.47;99673.31;346140;28;1429;-69
2022/05/02 00:01:34;;;;;;;14.43;10.57;;;;;;;20.11;40.46;99673.09;347912;28;958;-67
2022/05/02 00:01:47;;;;;;;14.45;10.50;;;;;;;20.12;40.47;99674.78;347452;28;1191;-69
2022/05/02 00:01:59;;;;;;;16.60;10.80;;;;;;;20.12;40.42;99666.84;346782;28;1228;-70
2022/05/02 00:02:11;;;;;;;15.70;10.45;;;;;;;20.13;40.40;99676.47;345140;28;1202;-68
2022/05/02 00:02:23;;;;;;;15.43;10.35;;;;;;;20.11;40.43;99667.81;344806;28;1243;-68
2022/05/02 00:02:37;;;;;;;14.05;10.55;;;;;;;20.12;40.52;99677.41;344893;28;1034;-67
2022/05/02 00:02:49;;;;;;;15.63;10.65;;;;;;;20.13;40.56;99665.91;345447;28;1196;-69
2022/05/02 00:03:01;;;;;;;16.20;10.77;;;;;;;20.11;40.64;99675.75;346167;28;1151;-68
2022/05/02 00:03:14;;;;;;;15.48;10.50;;;;;;;20.12;40.41;99674.78;346304;28;1396;-67
2022/05/02 00:03:26;;;;;;;15.02;10.73;;;;;;;20.09;40.56;99667.09;346319;28;1023;-68
2022/05/02 00:03:38;;;;;;;12.45;10.52;;;;;;;20.10;40.42;99677.53;345092;28;2018;-69
2022/05/02 00:03:51;;;;;;;13.55;10.68;;;;;;;20.10;40.40;99671.41;345956;28;1128;-68
2022/05/02 00:04:03;;;;;;;13.73;10.82;;;;;;;20.11;40.41;99670.47;346578;28;1098;-71
2022/05/02 00:04:15;;;;;;;15.50;10.93;;;;;;;20.10;40.50;99677.53;345103;28;1808;-68
2022/05/02 00:04:27;;;;;;;16.10;10.82;;;;;;;20.11;40.40;99673.09;346038;28;1259;-68
2022/05/02 00:04:39;;;;;;;15.10;10.70;;;;;;;20.12;40.31;99669.50;345835;28;1085;-68
2022/05/02 00:04:51;;;;;;;14.05;11.05;;;;;;;20.12;40.29;99670.34;345838;28;1055;-67
2022/05/02 00:05:05;;;;;;;14.82;10.70;;;;;;;20.14;40.19;99667.59;345971;28;1225;-68
2022/05/02 00:05:17;;;;;;;14.70;10.57;;;;;;;20.17;40.14;99677.09;346171;28;1182;-68
2022/05/02 00:05:29;;;;;;;14.65;10.32;;;;;;;20.18;40.07;99674.31;345936;28;1314;-69
2022/05/02 00:05:41;;;;;;;12.75;10.23;;;;;;;20.19;40.10;99672.56;346517;28;1469;-69
2022/05/02 00:05:55;;;;;;;13.10;10.32;;;;;;;20.20;39.94;99672.41;346442;28;1284;-68
2022/05/02 00:06:08;;;;;;;13.70;10.30;;;;;;;20.22;39.98;99674.94;345827;28;1903;-69
2022/05/02 00:06:19;;;;;;;13.75;10.18;;;;;;;20.21;39.95;99671.47;346399;28;1447;-67
2022/05/02 00:06:32;;;;;;;14.63;10.68;;;;;;;20.19;39.93;99676.03;346297;28;1219;-68
2022/05/02 00:06:44;;;;;;;15.32;10.77;;;;;;;20.21;39.81;99673.28;347204;28;1296;-67
2022/05/02 00:06:56;;;;;;;15.50;10.65;;;;;;;20.18;40.10;99679.59;346127;28;1248;-68
2022/05/02 00:07:08;;;;;;;15.90;10.85;;;;;;;20.17;40.32;99677.94;346396;28;1407;-68
2022/05/02 00:07:20;;;;;;;15.45;10.82;;;;;;;20.15;40.52;99669.28;346397;28;1060;-68
2022/05/02 00:07:32;;;;;;;16.13;11.30;;;;;;;20.14;41.03;99676.38;347170;28;1364;-68
2022/05/02 00:07:44;;;;;;;14.65;10.88;;;;;;;20.15;40.51;99674.56;347508;28;1018;-67
2022/05/02 00:07:56;;;;;;;14.70;10.98;;;;;;;20.14;40.67;99675.50;347612;28;1158;-67
2022/05/02 00:08:08;;;;;;;14.55;10.80;;;;;;;20.15;40.53;99674.56;347706;28;1344;-68
2022/05/02 00:08:20;;;;;;;13.35;10.75;;;;;;;20.13;40.77;99676.47;347549;28;1021;-68
2022/05/02 00:08:32;;;;;;;12.90;10.63;;;;;;;20.13;40.72;99679.09;346441;28;1313;-68
2022/05/02 00:08:44;;;;;;;14.98;10.70;;;;;;;20.10;40.49;99682.81;346589;28;731;-68
2022/05/02 00:08:56;;;;;;;15.10;10.57;;;;;;;20.09;40.93;99675.84;345831;28;1181;-68
2022/05/02 00:09:08;;;;;;;14.15;10.82;;;;;;;20.08;40.59;99683.84;346114;28;1148;-68
2022/05/02 00:09:20;;;;;;;15.82;10.90;;;;;;;20.10;40.35;99676.69;346765;28;1038;-68
2022/05/02 00:09:32;;;;;;;16.08;10.73;;;;;;;20.08;40.46;99679.44;346001;28;1177;-67
2022/05/02 00:09:44;;;;;;;15.77;10.70;;;;;;;20.07;40.32;99676.91;346028;28;1086;-68
2022/05/02 00:09:56;;;;;;;14.68;10.77;;;;;;;20.09;40.27;99682.91;345605;28;1972;-68
2022/05/02 00:10:09;;;;;;;14.25;10.52;;;;;;;20.09;40.49;99680.28;345152;28;1947;-69
2022/05/02 00:10:21;;;;;;;15.75;10.68;;;;;;;20.09;41.08;99675.84;345136;28;1042;-68
2022/05/02 00:10:33;;;;;;;15.60;10.77;;;;;;;20.10;40.81;99671.41;346092;28;1308;-68
2022/05/02 00:10:45;;;;;;;15.93;11.13;;;;;;;20.10;40.64;99676.69;346585;28;1057;-69
2022/05/02 00:10:57;;;;;;;15.68;11.07;;;;;;;20.09;40.56;99667.09;346630;28;1085;-69
2022/05/02 00:11:09;;;;;;;14.85;10.80;;;;;;;20.09;40.66;99669.72;346597;28;1050;-68
2022/05/02 00:11:21;;;;;;;15.02;10.80;;;;;;;20.07;40.57;99676.91;346546;28;1367;-69
2022/05/02 00:11:33;;;;;;;14.95;10.85;;;;;;;20.05;40.39;99674.38;346452;28;1265;-67
2022/05/02 00:11:45;;;;;;;13.77;10.18;;;;;;;20.07;40.49;99676.91;346159;28;1122;-68
2022/05/02 00:11:58;;;;;;;12.43;9.50;;;;;;;20.07;40.38;99671.63;347160;28;1293;-69
2022/05/02 00:12:10;;;;;;;11.55;9.20;;;;;;;20.07;40.42;99669.84;345826;28;1312;-68
2022/05/02 00:12:22;;;;;;;12.75;9.60;;;;;;;20.07;40.37;99682.19;346537;28;1207;-67
2022/05/02 00:12:34;;;;;;;13.10;9.57;;;;;;;20.07;40.36;99676.91;347530;28;1242;-69
2022/05/02 00:12:46;;;;;;;13.65;9.77;;;;;;;20.08;40.43;99668.03;346243;28;1252;-68
2022/05/02 00:13:00;;;;;;;14.10;10.23;;;;;;;20.09;40.38;99667.09;346384;28;1058;-68
2022/05/02 00:13:12;;;;;;;15.32;10.77;;;;;;;20.09;40.43;99670.56;346276;28;1335;-68
2022/05/02 00:13:24;;;;;;;14.70;11.02;;;;;;;20.09;40.34;99669.72;345774;28;1928;-71
2022/05/02 00:13:36;;;;;;;14.52;11.25;;;;;;;20.06;40.15;99669.94;345493;28;1897;-67
2022/05/02 00:13:48;;;;;;;13.85;11.35;;;;;;;20.04;40.22;99671.84;344766;28;1965;-70
2022/05/02 00:14:00;;;;;;;13.57;11.27;;;;;;;20.02;40.28;99668.47;345937;28;1907;-68
2022/05/02 00:14:12;;;;;;;13.30;11.05;;;;;;;20.01;40.60;99672.06;347509;28;1251;-68
2022/05/02 00:14:24;;;;;;;14.02;10.85;;;;;;;20.00;40.49;99675.66;346273;28;2140;-69
2022/05/02 00:14:36;;;;;;;14.07;10.57;;;;;;;19.99;40.63;99673.97;345635;28;1194;-67
2022/05/02 00:14:49;;;;;;;13.68;10.80;;;;;;;20.00;40.68;99675.66;344747;28;1164;-69
2022/05/02 00:15:02;;;;;;;14.07;11.25;;;;;;;19.99;40.79;99673.97;345001;28;1067;-68
2022/05/02 00:15:14;;;;;;;14.82;11.57;;;;;;;19.94;40.80;99672.50;345003;28;1086;-67
2022/05/02 00:15:26;;;;;;;14.45;11.70;;;;;;;19.98;40.56;99672.28;345305;28;1341;-67
2022/05/02 00:15:39;;;;;;;14.23;11.35;;;;;;;19.95;40.95;99671.53;346607;28;1078;-69
2022/05/02 00:15:51;;;;;;;14.13;10.70;;;;;;;19.99;40.76;99671.34;345992;28;1753;-68
2022/05/02 00:16:06;;;;;;;14.02;10.60;;;;;;;19.95;40.47;99671.53;346414;28;1066;-68
2022/05/02 00:16:18;;;;;;;13.63;10.75;;;;;;;19.98;40.68;99667.00;346097;28;897;-68
2022/05/02 00:16:30;;;;;;;13.00;10.50;;;;;;;19.98;40.90;99667.88;345784;28;1275;-68
2022/05/02 00:16:43;;;;;;;12.57;10.10;;;;;;;19.98;40.93;99669.63;345881;28;1151;-69
2022/05/02 00:16:54;;;;;;;12.95;10.48;;;;;;;19.98;40.67;99665.22;345887;28;1148;-69
2022/05/02 00:17:06;;;;;;;13.15;10.90;;;;;;;19.99;40.64;99669.53;346500;28;1018;-68
2022/05/02 00:17:19;;;;;;;14.23;10.85;;;;;;;20.00;40.68;99665.09;345641;28;1764;-68
2022/05/02 00:18:21;;;;;;;13.73;10.75;;;;;;;19.98;40.62;99667.88;343376;28;1070;-68
2022/05/02 00:18:33;;;;;;;13.10;10.60;;;;;;;19.98;40.58;99673.16;343682;28;1840;-71
2022/05/02 00:18:45;;;;;;;12.98;10.57;;;;;;;19.98;40.57;99667.88;343258;28;1158;-67
2022/05/02 00:18:57;;;;;;;12.65;10.27;;;;;;;20.00;40.55;99665.97;343368;28;1047;-68
2022/05/02 00:19:09;;;;;;;13.50;10.35;;;;;;;19.99;40.57;99668.72;342960;28;1246;-67
2022/05/02 00:19:21;;;;;;;13.30;9.98;;;;;;;19.98;40.39;99664.38;343327;28;1016;-68
2022/05/02 00:19:33;;;;;;;13.60;10.10;;;;;;;19.98;40.46;99661.72;343261;28;1388;-68
2022/05/02 00:19:45;;;;;;;12.60;9.90;;;;;;;19.98;40.42;99661.72;343799;28;1033;-69
2022/05/02 00:19:57;;;;;;;12.43;9.75;;;;;;;19.97;40.40;99660.06;344639;28;1356;-68
2022/05/02 00:20:09;;;;;;;11.90;9.82;;;;;;;20.00;40.31;99660.69;344722;28;1024;-68
2022/05/02 00:20:35;;;;;;;12.40;10.20;;;;;;;19.95;40.50;99661.00;344646;28;1099;-68
2022/05/02 00:20:47;;;;;;;14.60;10.50;;;;;;;19.93;40.36;99668.19;342589;28;1534;-68
2022/05/02 00:20:59;;;;;;;12.30;9.73;;;;;;;19.92;40.46;99669.16;342617;28;1812;-68
2022/05/02 00:21:11;;;;;;;12.63;9.98;;;;;;;19.91;40.75;99667.44;343192;28;1009;-68
2022/05/02 00:21:23;;;;;;;13.32;10.13;;;;;;;19.91;40.56;99662.16;343061;28;1378;-68
2022/05/02 00:21:35;;;;;;;13.85;10.80;;;;;;;19.91;40.50;99666.59;342408;28;1876;-69
2022/05/02 00:21:47;;;;;;;14.13;10.85;;;;;;;19.91;40.21;99664.81;343409;28;1211;-67
2022/05/02 00:21:59;;;;;;;14.30;11.10;;;;;;;19.92;40.25;99669.16;343537;28;1068;-68
2022/05/02 00:22:11;;;;;;;14.90;10.68;;;;;;;19.91;40.21;99667.44;342846;28;2012;-68
2022/05/02 00:22:23;;;;;;;15.45;10.55;;;;;;;19.91;40.29;99662.16;343681;28;1544;-68
2022/05/02 00:22:35;;;;;;;13.68;10.38;;;;;;;19.90;40.30;99659.63;343486;28;1106;-68
2022/05/02 00:22:47;;;;;;;12.45;10.27;;;;;;;19.88;40.46;99665.03;343058;28;1987;-68
2022/05/02 00:23:04;;;;;;;12.90;10.50;;;;;;;19.85;40.96;99665.25;342687;28;1977;-68
2022/05/02 00:23:16;;;;;;;14.13;10.77;;;;;;;19.84;40.72;99662.72;343485;28;1178;-67
2022/05/02 00:23:29;;;;;;;14.73;10.77;;;;;;;19.85;40.60;99657.31;343834;28;1332;-67
2022/05/02 00:23:41;;;;;;;14.15;10.60;;;;;;;19.87;40.47;99665.97;344553;28;1290;-68
2022/05/02 00:23:53;;;;;;;12.95;10.68;;;;;;;19.83;40.44;99664.50;344219;28;1261;-69
2022/05/02 00:24:05;;;;;;;13.38;10.75;;;;;;;19.84;40.54;99660.94;343271;28;1065;-68
2022/05/02 00:24:17;;;;;;;13.52;10.95;;;;;;;19.86;40.41;99659.03;341858;28;1950;-68
2022/05/02 00:24:30;;;;;;;13.10;10.63;;;;;;;19.86;40.55;99659.03;344261;28;1253;-68
2022/05/02 00:24:42;;;;;;;14.35;11.00;;;;;;;19.90;40.46;99663.13;344646;28;1071;-69
2022/05/02 00:24:54;;;;;;;14.27;10.68;;;;;;;19.88;40.48;99656.25;346842;28;1178;-69
2022/05/02 00:25:08;;;;;;;13.55;10.23;;;;;;;19.88;40.37;99657.13;347165;28;1916;-71
2022/05/02 00:25:20;;;;;;;13.07;9.82;;;;;;;19.89;40.51;99658.78;346718;28;1646;-69
2022/05/02 00:25:32;;;;;;;13.20;10.02;;;;;;;19.87;40.48;99660.69;346538;28;1285;-69
2022/05/02 00:25:44;;;;;;;13.38;10.20;;;;;;;19.85;40.47;99662.59;346479;28;1128;-68
2022/05/02 00:25:56;;;;;;;13.32;10.20;;;;;;;19.87;40.50;99660.69;345165;28;1232;-68
2022/05/02 00:26:08;;;;;;;12.90;9.52;;;;;;;19.87;40.33;99660.69;344834;28;1021;-67
2022/05/02 00:26:20;;;;;;;11.82;9.48;;;;;;;19.87;40.42;99659.88;345272;28;724;-69
2022/05/02 00:26:32;;;;;;;13.18;10.05;;;;;;;19.84;40.41;99666.22;344491;28;2162;-68
2022/05/02 00:26:44;;;;;;;13.73;10.85;;;;;;;19.85;40.42;99659.97;346175;28;1582;-68
2022/05/02 00:26:56;;;;;;;14.57;11.07;;;;;;;19.84;40.29;99660.94;346976;28;3044;-68
2022/05/02 00:27:08;;;;;;;13.23;10.50;;;;;;;19.83;40.31;99667.16;346971;28;1980;-69
2022/05/02 00:27:20;;;;;;;13.85;10.50;;;;;;;19.83;40.25;99664.50;348161;28;1757;-68
2022/05/02 00:27:32;;;;;;;14.35;10.82;;;;;;;19.82;40.13;99668.13;349549;28;1316;-68
2022/05/02 00:27:44;;;;;;;14.52;10.98;;;;;;;19.80;40.19;99664.75;349108;28;1234;-67
2022/05/02 00:27:57;;;;;;;14.15;10.88;;;;;;;19.77;40.18;99664.94;347302;28;1998;-70
2022/05/02 00:28:13;;;;;;;14.13;10.70;;;;;;;19.72;40.20;99662.66;348807;28;1081;-68
2022/05/02 00:28:25;;;;;;;14.95;11.15;;;;;;;19.73;40.31;99663.47;348800;28;1356;-68
2022/05/02 00:28:37;;;;;;;14.82;11.30;;;;;;;19.75;39.95;99666.84;348976;28;1241;-68
2022/05/02 00:28:50;;;;;;;15.30;11.20;;;;;;;19.72;40.34;99661.81;348727;28;1101;-68
2022/05/02 00:29:02;;;;;;;14.30;10.82;;;;;;;19.73;40.47;99664.31;348730;28;1196;-69
2022/05/02 00:29:14;;;;;;;13.20;10.65;;;;;;;19.71;40.31;99665.38;347744;28;1418;-68
2022/05/02 00:29:26;;;;;;;13.75;10.75;;;;;;;19.70;40.51;99663.69;347404;28;1361;-68
2022/05/02 00:29:38;;;;;;;14.55;11.10;;;;;;;19.70;40.46;99661.03;346104;28;2085;-68
2022/05/02 00:29:50;;;;;;;14.43;10.95;;;;;;;19.70;40.55;99658.41;346024;28;1597;-69
2022/05/02 00:30:02;;;;;;;13.55;10.73;;;;;;;19.70;40.50;99658.41;346355;28;1196;-68
2022/05/02 00:30:15;;;;;;;13.40;10.73;;;;;;;19.70;40.54;99663.69;347313;28;1152;-68
2022/05/02 00:30:28;;;;;;;13.77;10.68;;;;;;;19.71;40.55;99660.09;346390;28;1228;-67
2022/05/02 00:30:41;;;;;;;13.02;10.30;;;;;;;19.71;40.47;99665.38;346476;28;1202;-68
2022/05/02 00:30:53;;;;;;;12.57;10.32;;;;;;;19.72;40.56;99665.28;346171;28;1096;-68
2022/05/02 00:31:05;;;;;;;12.75;10.32;;;;;;;19.70;40.42;99663.69;346154;28;1124;-68
2022/05/02 00:31:17;;;;;;;12.38;9.90;;;;;;;19.69;40.40;99661.97;346222;28;1078;-68
2022/05/02 00:31:29;;;;;;;11.80;9.75;;;;;;;19.68;40.53;99655.00;345098;28;1907;-67
2022/05/02 00:31:41;;;;;;;12.02;10.10;;;;;;;19.67;40.64;99656.81;345039;28;1242;-68
2022/05/02 00:31:53;;;;;;;12.00;10.15;;;;;;;19.66;40.57;99659.53;345098;28;1073;-68
2022/05/02 00:32:06;;;;;;;12.15;10.23;;;;;;;19.66;40.62;99656.91;345992;28;1233;-68
2022/05/02 00:32:18;;;;;;;13.10;10.25;;;;;;;19.65;40.77;99663.16;346266;28;1047;-68
2022/05/02 00:32:29;;;;;;;13.95;10.70;;;;;;;19.67;40.48;99658.59;346334;28;1329;-68
2022/05/02 00:32:43;;;;;;;14.60;11.02;;;;;;;19.67;40.63;99655.97;345579;28;1536;-68
2022/05/02 00:32:56;;;;;;;14.45;11.13;;;;;;;19.66;40.54;99657.78;347004;28;1528;-67
2022/05/02 00:33:09;;;;;;;14.52;11.00;;;;;;;19.68;40.51;99662.91;346373;28;1351;-69
2022/05/02 00:33:21;;;;;;;14.18;11.00;;;;;;;19.69;40.66;99661.97;346308;28;1038;-68
2022/05/02 00:33:33;;;;;;;14.70;11.27;;;;;;;19.67;40.71;99663.88;346584;28;1330;-68
2022/05/02 00:33:45;;;;;;;14.60;11.23;;;;;;;19.65;40.84;99663.16;346220;28;1049;-68
2022/05/02 00:33:57;;;;;;;13.52;11.10;;;;;;;19.62;40.99;99658.94;346075;28;1100;-68
2022/05/02 00:34:09;;;;;;;13.68;11.27;;;;;;;19.62;40.82;99655.44;346442;28;1046;-68
2022/05/02 00:34:21;;;;;;;15.35;11.80;;;;;;;19.58;40.72;99662.75;346110;28;1039;-69
2022/05/02 00:34:33;;;;;;;15.38;11.82;;;;;;;19.56;40.81;99665.47;345903;28;1358;-70
2022/05/02 00:34:45;;;;;;;14.32;11.43;;;;;;;19.53;40.85;99657.75;346040;28;1054;-69
2022/05/02 00:34:58;;;;;;;14.50;11.57;;;;;;;19.51;41.04;99659.66;345467;28;2089;-67
2022/05/02 00:35:13;;;;;;;14.45;11.75;;;;;;;19.52;41.22;99656.09;345477;28;2082;-67
2022/05/02 00:35:26;;;;;;;15.10;11.85;;;;;;;19.52;41.06;99652.63;346489;28;1355;-68
2022/05/02 00:35:38;;;;;;;15.00;11.43;;;;;;;19.52;40.98;99666.63;346007;28;1095;-68
2022/05/02 00:35:50;;;;;;;13.85;10.65;;;;;;;19.52;41.00;99660.53;346201;28;1108;-68
2022/05/02 00:36:03;;;;;;;13.68;10.25;;;;;;;19.48;40.90;99654.63;346271;28;1223;-69
2022/05/02 00:36:15;;;;;;;14.32;10.70;;;;;;;19.49;40.93;99658.09;346198;28;1047;-67
2022/05/02 00:36:27;;;;;;;13.35;10.73;;;;;;;19.49;41.10;99658.94;346483;28;1410;-68
2022/05/02 00:36:40;;;;;;;13.20;10.65;;;;;;;19.48;41.03;99659.91;347643;28;1012;-68
2022/05/02 00:36:52;;;;;;;13.65;11.02;;;;;;;19.48;41.04;99653.78;347292;28;1161;-68
2022/05/02 00:37:04;;;;;;;14.50;11.10;;;;;;;19.51;41.09;99659.66;346180;28;1078;-68
2022/05/02 00:37:17;;;;;;;14.63;11.27;;;;;;;19.50;41.02;99660.63;346471;28;1061;-67
2022/05/02 00:37:29;;;;;;;16.00;11.95;;;;;;;19.50;41.15;99657.16;346159;28;1251;-70
2022/05/02 00:37:42;;;;;;;15.77;12.07;;;;;;;19.52;41.04;99657.91;346367;28;1228;-69
2022/05/02 00:37:55;;;;;;;15.25;11.80;;;;;;;19.46;40.99;99653.88;346348;28;1228;-69
2022/05/02 00:38:07;;;;;;;14.98;12.13;;;;;;;19.47;41.17;99650.28;347267;28;1273;-68
2022/05/02 00:38:19;;;;;;;17.33;12.80;;;;;;;19.47;41.10;99652.09;346424;28;1018;-68
2022/05/02 00:38:31;;;;;;;17.60;12.77;;;;;;;19.45;41.08;99654.81;346084;28;1280;-67
2022/05/02 00:38:43;;;;;;;16.40;12.25;;;;;;;19.44;41.08;99655.78;345728;28;1960;-71
2022/05/02 00:38:55;;;;;;;17.50;12.35;;;;;;;19.43;41.27;99656.72;345189;28;1569;-68
2022/05/02 00:39:07;;;;;;;17.23;12.43;;;;;;;19.42;41.54;99649.78;345066;28;1010;-68
2022/05/02 00:39:19;;;;;;;15.90;12.77;;;;;;;19.41;41.42;99658.63;344863;28;1165;-69
2022/05/02 00:39:32;;;;;;;16.70;12.82;;;;;;;19.40;41.34;99656.94;346390;28;1303;-70
2022/05/02 00:39:44;;;;;;;17.58;12.77;;;;;;;19.39;41.31;99655.25;347526;28;1058;-68
2022/05/02 00:39:56;;;;;;;17.85;12.98;;;;;;;19.39;41.36;99647.34;347866;28;1093;-67
2022/05/02 00:40:11;;;;;;;16.52;13.07;;;;;;;19.38;41.33;99652.72;346790;28;1215;-69
2022/05/02 00:40:23;;;;;;;16.23;12.95;;;;;;;19.38;41.43;99647.44;346093;28;1035;-68
2022/05/02 00:40:35;;;;;;;16.05;12.57;;;;;;;19.37;41.46;99657.16;347715;28;1042;-68
2022/05/02 00:40:47;;;;;;;15.70;12.45;;;;;;;19.35;41.42;99654.59;347747;28;995;-67
2022/05/02 00:41:00;;;;;;;15.43;12.38;;;;;;;19.33;41.71;99656.50;347707;28;1070;-67
2022/05/02 00:41:12;;;;;;;15.43;12.32;;;;;;;19.34;41.71;99654.75;347646;28;1163;-67
2022/05/02 00:41:25;;;;;;;15.20;12.45;;;;;;;19.32;41.74;99654.00;347115;28;1887;-72
2022/05/02 00:41:37;;;;;;;15.80;12.52;;;;;;;19.29;41.66;99655.03;344554;28;1939;-68
2022/05/02 00:41:49;;;;;;;16.95;12.63;;;;;;;19.28;41.72;99653.38;344519;28;1416;-68
2022/05/02 00:42:01;;;;;;;17.35;12.60;;;;;;;19.28;41.76;99649.88;344881;28;1140;-68
2022/05/02 00:42:13;;;;;;;15.93;12.43;;;;;;;19.24;41.79;99651.06;344886;28;1187;-69
2022/05/02 00:42:25;;;;;;;17.00;12.57;;;;;;;18.76;42.77;99654.22;345345;28;1349;-69
2022/05/02 00:42:38;;;;;;;17.77;13.18;;;;;;;18.63;43.04;99646.28;346170;28;1237;-68
2022/05/02 00:42:51;;;;;;;17.50;13.13;;;;;;;18.51;43.44;99647.94;345249;28;1758;-69
2022/05/02 00:43:03;;;;;;;17.23;13.27;;;;;;;18.58;43.39;99650.19;344839;28;1193;-68
2022/05/02 00:43:15;;;;;;;17.25;13.65;;;;;;;18.69;43.26;99651.16;345373;28;1573;-69
2022/05/02 00:43:27;;;;;;;16.63;13.48;;;;;;;18.79;42.87;99650.53;346015;28;1263;-69
2022/05/02 00:43:40;;;;;;;15.80;13.27;;;;;;;18.83;42.34;99646.78;347145;28;1159;-70
2022/05/02 00:43:54;;;;;;;16.20;12.90;;;;;;;18.90;42.12;99653.34;346111;28;1674;-68
2022/05/02 00:44:06;;;;;;;16.58;12.85;;;;;;;18.93;41.89;99653.13;345136;28;1243;-67
2022/05/02 00:44:17;;;;;;;17.35;12.88;;;;;;;18.94;41.75;99644.28;345558;28;1215;-68
2022/05/02 00:44:29;;;;;;;16.25;12.90;;;;;;;18.98;41.66;99648.38;346231;28;1287;-68
2022/05/02 00:44:43;;;;;;;16.58;13.00;;;;;;;19.04;41.45;99655.88;346237;28;1061;-69
2022/05/02 00:44:55;;;;;;;16.98;13.38;;;;;;;18.98;41.33;99645.75;346252;28;1251;-68
2022/05/02 00:45:09;;;;;;;16.08;12.73;;;;;;;19.01;41.38;99645.53;346140;28;1317;-70
2022/05/02 00:45:21;;;;;;;16.08;12.50;;;;;;;18.91;41.43;99649.75;347331;28;1027;-68
2022/05/02 00:45:39;;;;;;;15.32;12.40;;;;;;;18.86;41.33;99646.59;347495;28;1289;-68
2022/05/02 00:45:51;;;;;;;15.68;12.60;;;;;;;18.72;41.25;99644.84;347105;28;2029;-69
2022/05/02 00:46:16;;;;;;;17.13;13.27;;;;;;;18.61;41.37;99648.16;347520;28;1214;-70
2022/05/02 00:46:28;;;;;;;17.88;13.60;;;;;;;18.60;41.56;99646.50;347819;28;1316;-68
2022/05/02 00:46:41;;;;;;;16.75;13.27;;;;;;;18.56;41.45;99642.38;345439;28;1606;-71
2022/05/02 00:46:53;;;;;;;18.60;13.32;;;;;;;18.47;41.60;99643.84;344897;28;1310;-67
2022/05/02 00:47:06;;;;;;;18.77;13.25;;;;;;;18.27;41.86;99645.13;344916;28;1078;-68
2022/05/02 00:47:20;;;;;;;16.73;12.68;;;;;;;18.24;41.93;99653.19;344955;28;1102;-68
2022/05/02 00:47:32;;;;;;;16.13;12.68;;;;;;;17.94;42.21;99650.75;346909;28;1229;-68
2022/05/02 00:47:52;;;;;;;18.77;12.95;;;;;;;18.00;42.31;99646.88;347604;28;1097;-68
2022/05/02 00:48:05;;;;;;;17.65;12.60;;;;;;;18.02;41.99;99650.25;347408;28;924;-68
2022/05/02 00:48:17;;;;;;;16.48;12.95;;;;;;;17.94;42.15;99648.13;346860;28;1209;-69
2022/05/02 00:48:29;;;;;;;17.88;13.20;;;;;;;17.90;42.05;99649.25;347408;28;1221;-70
2022/05/02 00:48:41;;;;;;;18.58;13.32;;;;;;;17.74;42.34;99652.78;348074;28;1081;-68
2022/05/02 00:48:53;;;;;;;17.67;13.27;;;;;;;17.79;42.32;99649.91;348885;28;1061;-68
2022/05/02 00:49:05;;;;;;;17.27;13.35;;;;;;;17.70;42.21;99655.72;348822;28;1054;-67
2022/05/02 00:49:17;;;;;;;17.80;13.48;;;;;;;17.69;41.90;99651.41;348685;28;1331;-68
2022/05/02 00:49:29;;;;;;;18.50;13.43;;;;;;;17.50;42.32;99651.69;347532;28;1149;-68
2022/05/02 00:49:43;;;;;;;18.25;13.13;;;;;;;17.50;42.42;99642.00;347517;28;1078;-68
2022/05/02 00:49:55;;;;;;;17.27;13.35;;;;;;;17.43;43.08;99643.34;347186;28;1313;-69
2022/05/02 00:50:09;;;;;;;18.30;13.45;;;;;;;17.39;43.26;99646.25;347359;28;1078;-70
2022/05/02 00:50:32;;;;;;;18.38;13.60;;;;;;;17.49;43.14;99648.22;346514;28;1930;-68
2022/05/02 00:50:47;;;;;;;16.75;13.05;;;;;;;17.49;43.21;99647.38;345288;28;1042;-68
2022/05/02 00:50:58;;;;;;;19.00;13.13;;;;;;;17.36;43.47;99642.88;347088;28;1757;-70
2022/05/02 00:51:11;;;;;;;20.15;13.52;;;;;;;17.23;43.72;99646.34;348276;28;1137;-67
2022/05/02 00:51:23;;;;;;;18.40;13.73;;;;;;;17.29;43.67;99640.72;347250;28;1347;-67
2022/05/02 00:51:34;;;;;;;17.40;14.05;;;;;;;17.27;43.56;99648.69;346449;28;1204;-68
2022/05/02 00:51:46;;;;;;;18.20;14.27;;;;;;;17.25;43.60;99649.72;346232;28;1259;-67
2022/05/02 00:51:58;;;;;;;18.08;14.25;;;;;;;17.21;43.93;99649.06;346268;28;1242;-68
2022/05/02 00:52:11;;;;;;;18.02;14.15;;;;;;;17.16;43.56;99646.72;346432;28;1327;-68
2022/05/02 00:52:23;;;;;;;18.05;13.93;;;;;;;17.15;43.45;99649.44;346397;28;1041;-70
2022/05/02 00:52:35;;;;;;;17.90;13.82;;;;;;;17.12;43.93;99649.59;347596;28;1093;-70
2022/05/02 00:52:47;;;;;;;18.08;13.95;;;;;;;17.19;43.52;99645.69;347569;28;1239;-69
2022/05/02 00:53:01;;;;;;;19.73;14.32;;;;;;;17.22;43.76;99649.91;347822;28;1212;-70
2022/05/02 00:53:15;;;;;;;20.55;14.85;;;;;;;17.24;43.53;99642.75;346521;28;1185;-68
2022/05/02 00:53:27;;;;;;;21.08;14.52;;;;;;;17.21;43.61;99646.44;346459;28;1093;-68
2022/05/02 00:53:40;;;;;;;21.52;14.73;;;;;;;17.21;43.92;99645.59;346575;28;1066;-70
2022/05/02 00:53:52;;;;;;;21.45;14.88;;;;;;;17.02;44.16;99649.28;346132;28;1977;-71
2022/05/02 00:54:04;;;;;;;21.05;14.80;;;;;;;17.08;44.21;99648.97;345389;28;1637;-67
2022/05/02 00:54:17;;;;;;;20.73;14.90;;;;;;;17.19;44.02;99647.47;344799;28;1306;-68
2022/05/02 00:54:29;;;;;;;20.42;15.25;;;;;;;17.24;44.00;99648.03;346419;28;1318;-69
2022/05/02 00:54:43;;;;;;;21.08;14.88;;;;;;;17.27;43.82;99646.06;347603;28;1292;-71
2022/05/02 00:54:55;;;;;;;19.90;14.48;;;;;;;17.31;43.65;99644.09;344603;28;973;-71
2022/05/02 00:55:08;;;;;;;18.95;14.63;;;;;;;17.31;43.51;99639.69;345193;28;1038;-69
2022/05/02 00:55:20;;;;;;;20.13;15.13;;;;;;;17.29;43.67;99645.97;344949;28;1043;-67
2022/05/02 00:55:32;;;;;;;21.52;15.43;;;;;;;17.35;43.33;99650.84;346147;28;1364;-67
2022/05/02 00:55:45;;;;;;;20.88;15.18;;;;;;;17.33;43.53;99643.06;346257;28;1111;-68
2022/05/02 00:55:57;;;;;;;20.63;14.85;;;;;;;17.38;43.20;99640.13;345548;28;1860;-69
2022/05/02 00:56:09;;;;;;;20.13;14.70;;;;;;;17.36;43.51;99648.13;346127;28;1185;-69
2022/05/02 00:56:21;;;;;;;21.35;15.02;;;;;;;17.42;43.34;99646.06;346371;28;1837;-69
2022/05/02 00:56:34;;;;;;;25.30;15.75;;;;;;;17.45;43.31;99641.47;347365;28;1283;-68
2022/05/02 00:56:46;;;;;;;24.40;15.70;;;;;;;17.41;43.56;99645.22;347465;28;1070;-68
2022/05/02 00:56:59;;;;;;;23.88;15.60;;;;;;;17.43;43.54;99648.59;345954;28;2151;-68
2022/05/02 00:57:14;;;;;;;21.38;15.07;;;;;;;17.43;43.48;99645.97;346175;28;1070;-68
2022/05/02 00:57:26;;;;;;;21.02;14.68;;;;;;;17.46;43.00;99652.81;346328;28;1378;-67
2022/05/02 00:57:38;;;;;;;20.83;14.48;;;;;;;17.50;43.12;99644.63;345819;28;2093;-69
2022/05/02 00:57:51;;;;;;;20.10;14.57;;;;;;;17.59;42.91;99645.88;346107;28;1084;-67
2022/05/02 00:58:04;;;;;;;19.73;13.80;;;;;;;17.66;43.20;99648.97;345182;28;2112;-69
2022/05/02 00:58:17;;;;;;;18.98;13.35;;;;;;;17.75;42.96;99643.16;346153;28;1110;-67
2022/05/02 00:58:29;;;;;;;19.35;13.48;;;;;;;17.82;42.68;99647.06;346931;28;1323;-68
2022/05/02 00:58:41;;;;;;;18.27;13.98;;;;;;;17.87;42.74;99642.41;347646;28;1078;-69
2022/05/02 00:58:54;;;;;;;18.60;14.05;;;;;;;17.93;42.49;99647.28;347960;28;1018;-67
2022/05/02 00:59:07;;;;;;;20.95;14.48;;;;;;;17.94;42.38;99648.13;347573;28;1070;-67
2022/05/02 00:59:21;;;;;;;20.52;14.05;;;;;;;17.98;42.19;99643.50;347592;28;1066;-68
2022/05/02 00:59:36;;;;;;;20.17;13.88;;;;;;;17.93;42.15;99647.28;346369;28;1347;-68
2022/05/02 00:59:48;;;;;;;19.27;13.77;;;;;;;17.96;42.05;99646.22;345053;28;1206;-67
2022/05/02 01:00:03;;;;;;;18.02;13.52;;;;;;;17.97;42.17;99647.94;344889;28;1114;-68